»·PEaware :: N582WD KPSP-KSBA

N582WD :: KPSP-KSBA

FLIGHT INFORMATION

Flight Status: Arrived
Operator: Privately registered:
United States
More flights under this callsign
Pilot: Kaleb W. (11686)
Aircraft: ECLIPSE 500
(EA50)
More flights by this aircraft type
Origin: KPSP Palm Springs Intl
United States
Destination: KSBA Santa Barbara Mun
United States
More flights between these airports :: More routes between these airports
Route: +CATH1 PSP V388 DEWAY POM VNY V186 DEANO V27 KWANG
File this flight plan on PilotEdge
Remarks: RMK / SIMBRIEF
Altitude:
(Current/Filed)
16,000ft
Speed:
(Current/Filed)
338kts
Departed: 28-Apr-19 10:51 AM
Arrived: 28-Apr-19 11:49 AM
Distance/Time
Traveled:
169nm/0:58
Distance/Time
To Go:
Arrived

Flight Plot

Page will automatically refresh every two minutes.


Map Options




Map Legend


Flown Route
Filed Route
Departure Airport
Arrival Airport
Navaid (VOR, NDB)
Fix

Horizontal Profiles

Position Reports

Time Latitude Longitude Heading Altitude Ground
Speed
28-Apr-19 10:17 33.824102 -116.507817 211 413ft 0kts
28-Apr-19 10:18 33.824102 -116.507817 211 413ft 0kts
28-Apr-19 10:19 33.824102 -116.507817 211 413ft 0kts
28-Apr-19 10:20 33.824102 -116.507817 211 413ft 0kts
28-Apr-19 10:21 33.824102 -116.507817 211 413ft 0kts
28-Apr-19 10:22 33.824102 -116.507817 211 413ft 0kts
28-Apr-19 10:23 33.824102 -116.507817 211 413ft 0kts
28-Apr-19 10:23 33.824102 -116.507817 211 413ft 0kts
28-Apr-19 10:25 33.824102 -116.507817 211 413ft 0kts
28-Apr-19 10:26 33.824102 -116.507817 211 413ft 0kts
28-Apr-19 10:26 33.824102 -116.507817 211 413ft 0kts
28-Apr-19 10:27 33.824102 -116.507817 211 413ft 0kts
28-Apr-19 10:29 33.824102 -116.507817 211 413ft 0kts
28-Apr-19 10:29 33.824102 -116.507817 211 413ft 0kts
28-Apr-19 10:30 33.824102 -116.507817 211 413ft 0kts
28-Apr-19 10:31 33.824102 -116.507817 211 413ft 0kts
28-Apr-19 10:32 33.824102 -116.507817 211 413ft 0kts
28-Apr-19 10:33 33.824100 -116.507819 211 414ft 0kts
28-Apr-19 10:34 33.824461 -116.507722 100 414ft 1kts
28-Apr-19 10:35 33.824456 -116.507798 76 414ft 0kts
28-Apr-19 10:36 33.824456 -116.507798 76 414ft 0kts
28-Apr-19 10:37 33.824456 -116.507798 76 414ft 0kts
28-Apr-19 10:38 33.824477 -116.507692 76 414ft 4kts
28-Apr-19 10:39 33.824692 -116.507236 48 414ft 0kts
28-Apr-19 10:40 33.824692 -116.507236 48 414ft 0kts
28-Apr-19 10:41 33.824692 -116.507236 48 414ft 0kts
28-Apr-19 10:42 33.824692 -116.507236 48 414ft 0kts
28-Apr-19 10:43 33.825255 -116.506432 61 414ft 15kts
28-Apr-19 10:44 33.820356 -116.501420 143 400ft 19kts
28-Apr-19 10:45 33.818682 -116.499900 135 396ft 0kts
28-Apr-19 10:46 33.818682 -116.499900 135 396ft 0kts
28-Apr-19 10:47 33.818540 -116.499372 96 395ft 12kts
28-Apr-19 10:48 33.818718 -116.498379 48 393ft 13kts
28-Apr-19 10:49 33.819347 -116.498480 320 394ft 6kts
28-Apr-19 10:50 33.841880 -116.519006 322 1025ft 159kts
28-Apr-19 10:51 33.878338 -116.555008 321 3545ft 176kts
28-Apr-19 10:52 33.920690 -116.577924 34 5878ft 183kts
28-Apr-19 10:53 33.934347 -116.521077 84 7960ft 188kts
28-Apr-19 10:54 33.942824 -116.456844 81 9935ft 201kts
28-Apr-19 10:55 33.914138 -116.410744 162 11729ft 199kts
28-Apr-19 10:56 33.856270 -116.422853 244 12018ft 253kts
28-Apr-19 10:57 33.885643 -116.499095 303 12011ft 282kts
28-Apr-19 10:58 33.917726 -116.588014 286 12011ft 296kts
28-Apr-19 10:59 33.938481 -116.686449 282 12024ft 303kts
28-Apr-19 11:00 33.954456 -116.786316 279 11987ft 305kts
28-Apr-19 11:01 33.967298 -116.886108 279 11987ft 301kts
28-Apr-19 11:02 33.979680 -116.983652 278 11538ft 275kts
28-Apr-19 11:03 33.991017 -117.073869 279 10100ft 269kts
28-Apr-19 11:04 34.002099 -117.162482 279 8590ft 267kts
28-Apr-19 11:05 34.013072 -117.250601 279 7989ft 266kts
28-Apr-19 11:06 34.023979 -117.338769 279 7988ft 266kts
28-Apr-19 11:07 34.034845 -117.427354 280 7989ft 266kts
28-Apr-19 11:08 34.045727 -117.516532 280 7992ft 273kts
28-Apr-19 11:09 34.057062 -117.608204 275 7994ft 277kts
28-Apr-19 11:10 34.067875 -117.700302 280 7993ft 274kts
28-Apr-19 11:11 34.079142 -117.791056 283 7995ft 271kts
28-Apr-19 11:12 34.097936 -117.880251 281 8010ft 277kts
28-Apr-19 11:13 34.116650 -117.970648 281 8008ft 277kts
28-Apr-19 11:14 34.135434 -118.061469 281 8008ft 278kts
28-Apr-19 11:15 34.154220 -118.152609 281 8007ft 280kts
28-Apr-19 11:16 34.166284 -118.245518 276 8007ft 279kts
28-Apr-19 11:17 34.177522 -118.338973 275 8007ft 280kts
28-Apr-19 11:18 34.188386 -118.431768 275 8005ft 278kts
28-Apr-19 11:19 34.199091 -118.524210 275 8002ft 276kts
28-Apr-19 11:20 34.209728 -118.616714 275 8000ft 279kts
28-Apr-19 11:21 34.220235 -118.708894 275 8000ft 284kts
28-Apr-19 11:22 34.230558 -118.800422 277 8001ft 268kts
28-Apr-19 11:23 34.240817 -118.890938 277 8000ft 271kts
28-Apr-19 11:24 34.250984 -118.981687 276 7999ft 272kts
28-Apr-19 11:25 34.261547 -119.076691 277 8004ft 287kts
28-Apr-19 11:26 34.271601 -119.167806 275 7999ft 275kts
28-Apr-19 11:27 34.281713 -119.260289 275 7999ft 277kts
28-Apr-19 11:28 34.291830 -119.353542 275 7834ft 282kts
28-Apr-19 11:29 34.301170 -119.439270 275 6808ft 229kts
28-Apr-19 11:30 34.309533 -119.515870 275 5995ft 220kts
28-Apr-19 11:31 34.317652 -119.589302 275 5992ft 220kts
28-Apr-19 11:32 34.325806 -119.662943 275 5995ft 220kts
28-Apr-19 11:33 34.333913 -119.736722 275 5998ft 222kts
28-Apr-19 11:34 34.342005 -119.810996 275 5999ft 222kts
28-Apr-19 11:35 34.349839 -119.881720 275 5998ft 197kts
28-Apr-19 11:36 34.357427 -119.949134 275 5835ft 207kts
28-Apr-19 11:37 34.364804 -120.016299 275 4584ft 196kts
28-Apr-19 11:38 34.370610 -120.075977 275 3996ft 165kts
28-Apr-19 11:39 34.376361 -120.131128 300 3989ft 163kts
28-Apr-19 11:40 34.408133 -120.117621 62 3552ft 160kts
28-Apr-19 11:41 34.422897 -120.069085 89 2550ft 150kts
28-Apr-19 11:42 34.423857 -120.022540 89 1991ft 119kts
28-Apr-19 11:43 34.424758 -119.982201 90 1796ft 111kts
28-Apr-19 11:44 34.425535 -119.946767 90 1524ft 102kts
28-Apr-19 11:45 34.426247 -119.913373 90 997ft 98kts
28-Apr-19 11:46 34.426951 -119.880875 90 479ft 92kts
28-Apr-19 11:47 34.427629 -119.850470 91 14ft 83kts
28-Apr-19 11:48 34.427382 -119.835030 142 10ft 15kts
28-Apr-19 11:49 34.426952 -119.834921 219 9ft 0kts
28-Apr-19 11:50 34.425998 -119.838122 163 10ft 7kts
28-Apr-19 11:51 34.420005 -119.836350 139 12ft 12kts
28-Apr-19 11:52 34.422714 -119.836366 262 10ft 0kts

Navigation Log

Ident Type
Flight plan parsing failed, navigation log unavailable